createdAt,value
2023-04-07T00:01:46.465Z,56.32
2023-04-07T00:04:13.760Z,56.86
2023-04-07T00:06:41.188Z,56.47
2023-04-07T00:09:08.108Z,56.90
2023-04-07T00:11:35.043Z,57.15
2023-04-07T00:14:02.176Z,57.22
2023-04-07T00:16:29.222Z,56.89
2023-04-07T00:18:56.284Z,56.66
2023-04-07T00:21:23.157Z,56.73
2023-04-07T00:23:50.264Z,56.60
2023-04-07T00:26:17.150Z,56.26
2023-04-07T00:28:45.229Z,56.52
2023-04-07T00:31:12.335Z,56.73
2023-04-07T00:33:39.470Z,56.68
2023-04-07T00:36:06.555Z,56.82
2023-04-07T00:38:33.852Z,56.71
2023-04-07T00:41:01.391Z,56.55
2023-04-07T00:43:28.364Z,56.51
2023-04-07T00:45:56.206Z,56.66
2023-04-07T00:48:25.608Z,56.66
2023-04-07T00:50:53.006Z,57.00
2023-04-07T00:53:20.930Z,56.91
2023-04-07T00:55:48.064Z,56.74
2023-04-07T00:58:15.075Z,56.69
2023-04-07T01:00:51.800Z,56.72
2023-04-07T01:03:26.657Z,56.94
2023-04-07T01:06:02.359Z,57.15
2023-04-07T01:08:35.648Z,56.98
2023-04-07T01:11:11.312Z,56.67
2023-04-07T01:13:45.976Z,56.77
2023-04-07T01:16:53.666Z,57.33
2023-04-07T01:19:38.440Z,57.08
2023-04-07T01:22:12.809Z,57.04
2023-04-07T01:25:15.874Z,57.05
2023-04-07T01:27:51.870Z,56.22
2023-04-07T01:30:20.576Z,56.97
2023-04-07T01:32:52.268Z,56.41
2023-04-07T01:35:23.393Z,56.17
2023-04-07T01:37:52.350Z,56.74
2023-04-07T01:40:22.155Z,56.77
2023-04-07T01:42:49.918Z,56.47
2023-04-07T01:45:17.480Z,58.69
2023-04-07T01:47:45.890Z,59.93
2023-04-07T01:50:13.618Z,61.51
2023-04-07T01:52:42.881Z,62.40
2023-04-07T01:55:10.630Z,63.14
2023-04-07T01:57:44.176Z,63.87
2023-04-07T02:00:15.963Z,64.53
2023-04-07T02:02:49.224Z,65.03
2023-04-07T02:05:20.914Z,65.50
2023-04-07T02:07:56.153Z,65.76
2023-04-07T02:10:27.141Z,65.93
2023-04-07T02:13:00.616Z,66.32
2023-04-07T02:15:31.480Z,66.29
2023-04-07T02:18:00.891Z,66.53
2023-04-07T02:20:28.799Z,66.45
2023-04-07T02:22:56.227Z,66.70
2023-04-07T02:25:27.192Z,66.79
2023-04-07T02:27:55.753Z,66.84
2023-04-07T02:30:23.149Z,66.92
2023-04-07T02:32:52.274Z,67.07
2023-04-07T02:35:21.226Z,66.83
2023-04-07T02:37:48.486Z,66.68
2023-04-07T02:40:16.350Z,67.04
2023-04-07T02:42:44.354Z,66.91
2023-04-07T02:45:11.917Z,66.82
2023-04-07T02:47:39.648Z,66.95
2023-04-07T02:50:07.113Z,66.91
2023-04-07T02:52:36.202Z,66.70
2023-04-07T02:55:09.799Z,66.76
2023-04-07T02:57:37.019Z,66.76
2023-04-07T03:00:09.440Z,66.64
2023-04-07T03:03:09.186Z,67.04
2023-04-07T03:05:39.336Z,67.06
2023-04-07T03:08:07.653Z,67.32
2023-04-07T03:10:34.635Z,66.98
2023-04-07T03:13:01.790Z,66.80
2023-04-07T03:15:30.123Z,66.76
2023-04-07T03:17:57.295Z,66.60
2023-04-07T03:20:24.279Z,66.63
2023-04-07T03:22:51.545Z,66.37
2023-04-07T03:25:25.665Z,66.22
2023-04-07T03:27:52.929Z,66.27
2023-04-07T03:30:20.906Z,65.58
2023-04-07T03:32:48.646Z,64.38
2023-04-07T03:35:15.797Z,62.34
2023-04-07T03:37:44.873Z,61.59
2023-04-07T03:40:16.035Z,60.31
2023-04-07T03:42:43.744Z,59.22
2023-04-07T03:45:12.870Z,58.42
2023-04-07T03:47:44.920Z,57.64
2023-04-07T03:50:12.746Z,57.93
2023-04-07T03:52:53.154Z,55.87
2023-04-07T03:55:26.741Z,55.85
2023-04-07T03:57:58.927Z,55.67
2023-04-07T04:00:31.846Z,55.50
2023-04-07T04:03:07.217Z,55.33
2023-04-07T04:05:37.185Z,54.97
2023-04-07T04:08:04.407Z,54.38
2023-04-07T04:10:33.519Z,54.49
2023-04-07T04:13:04.074Z,54.25
2023-04-07T04:15:31.238Z,53.68
2023-04-07T04:18:00.664Z,54.01
2023-04-07T04:20:27.830Z,57.86
2023-04-07T04:22:55.480Z,59.75
2023-04-07T04:25:22.691Z,60.36
2023-04-07T04:27:53.926Z,61.44
2023-04-07T04:30:23.610Z,62.40
2023-04-07T04:33:02.013Z,63.31
2023-04-07T04:35:41.568Z,63.44
2023-04-07T04:38:16.328Z,63.48
2023-04-07T04:40:49.659Z,63.52
2023-04-07T04:43:19.862Z,63.85
2023-04-07T04:45:47.629Z,64.00
2023-04-07T04:48:17.420Z,64.13
2023-04-07T04:50:45.011Z,64.10
2023-04-07T04:53:14.503Z,64.26
2023-04-07T04:55:52.232Z,63.73
2023-04-07T04:58:27.190Z,63.71
2023-04-07T05:00:58.332Z,63.58
2023-04-07T05:03:33.685Z,63.83
2023-04-07T05:06:04.364Z,63.77
2023-04-07T05:08:32.407Z,63.50
2023-04-07T05:11:00.704Z,63.17
2023-04-07T05:13:31.841Z,62.78
2023-04-07T05:16:02.584Z,62.70
2023-04-07T05:18:31.099Z,62.69
2023-04-07T05:20:59.275Z,62.91
2023-04-07T05:23:28.081Z,62.88
2023-04-07T05:25:55.793Z,62.41
2023-04-07T05:28:24.745Z,60.80
2023-04-07T05:30:53.893Z,60.78
2023-04-07T05:33:25.620Z,61.26
2023-04-07T05:35:54.154Z,60.79
2023-04-07T05:38:21.473Z,60.64
2023-04-07T05:40:49.665Z,60.57
2023-04-07T05:43:24.660Z,59.60
2023-04-07T05:45:51.903Z,58.78
2023-04-07T05:48:19.264Z,58.70
2023-04-07T05:50:47.644Z,58.15
2023-04-07T05:53:17.798Z,57.48
2023-04-07T05:55:44.838Z,57.48
2023-04-07T05:58:24.548Z,57.71
2023-04-07T06:00:54.366Z,56.84
2023-04-07T06:03:21.843Z,57.33
2023-04-07T06:06:01.677Z,57.36
2023-04-07T06:08:29.318Z,57.19
2023-04-07T06:10:57.082Z,57.38
2023-04-07T06:13:24.005Z,56.34
2023-04-07T06:15:51.321Z,56.50
2023-04-07T06:18:18.315Z,56.68
2023-04-07T06:20:45.367Z,56.80
2023-04-07T06:23:12.248Z,55.60
2023-04-07T06:25:47.220Z,55.16
2023-04-07T06:28:15.540Z,54.22
2023-04-07T06:30:42.631Z,54.85
2023-04-07T06:33:12.318Z,53.89
2023-04-07T06:35:41.663Z,53.47
2023-04-07T06:38:08.628Z,54.22
2023-04-07T06:40:35.826Z,54.85
2023-04-07T06:43:04.177Z,53.80
2023-04-07T06:45:46.050Z,53.30
2023-04-07T06:48:13.354Z,52.50
2023-04-07T06:50:40.408Z,50.72
2023-04-07T06:53:07.460Z,51.53
2023-04-07T06:55:34.333Z,50.79
2023-04-07T06:58:01.366Z,50.86
2023-04-07T07:00:30.348Z,51.25
2023-04-07T07:02:57.804Z,49.94
2023-04-07T07:05:25.593Z,49.94
2023-04-07T07:07:52.703Z,47.68
2023-04-07T07:10:22.886Z,47.75
2023-04-07T07:12:51.706Z,44.86
2023-04-07T07:15:18.757Z,43.40
2023-04-07T07:17:45.682Z,41.58
2023-04-07T07:20:12.718Z,41.29
2023-04-07T07:22:39.794Z,42.97
2023-04-07T07:25:07.322Z,41.83
2023-04-07T07:27:34.298Z,42.05
2023-04-07T07:30:01.556Z,42.38
2023-04-07T07:32:28.880Z,42.29
2023-04-07T07:34:56.528Z,42.71
2023-04-07T07:37:23.400Z,41.24
2023-04-07T07:39:50.390Z,40.74
2023-04-07T07:42:21.564Z,41.01
2023-04-07T07:44:48.825Z,40.06
2023-04-07T07:47:15.664Z,40.32
2023-04-07T07:49:43.772Z,40.29
2023-04-07T07:52:11.362Z,38.53
2023-04-07T07:54:38.377Z,38.73
2023-04-07T07:57:06.241Z,38.81
2023-04-07T07:59:33.281Z,39.35
2023-04-07T08:02:00.520Z,39.22
2023-04-07T08:04:27.713Z,39.28
2023-04-07T08:06:55.202Z,38.43
2023-04-07T08:09:22.302Z,38.89
2023-04-07T08:11:49.660Z,39.46
2023-04-07T08:14:17.304Z,38.37
2023-04-07T08:16:45.490Z,38.39
2023-04-07T08:19:13.539Z,38.16
2023-04-07T08:21:40.794Z,38.40
2023-04-07T08:24:09.149Z,38.26
2023-04-07T08:26:36.196Z,38.39
2023-04-07T08:29:03.183Z,37.99
2023-04-07T08:31:30.357Z,37.53
2023-04-07T08:34:00.210Z,37.16
2023-04-07T08:36:28.925Z,38.11
2023-04-07T08:38:55.902Z,38.04
2023-04-07T08:41:39.824Z,38.41
2023-04-07T08:44:07.839Z,38.07
2023-04-07T08:46:35.131Z,38.29
2023-04-07T08:49:02.754Z,38.78
2023-04-07T08:51:34.695Z,37.92
2023-04-07T08:54:05.265Z,37.74
2023-04-07T08:56:34.517Z,37.21
2023-04-07T08:59:03.116Z,37.24
2023-04-07T09:01:31.090Z,37.16
2023-04-07T09:03:59.205Z,37.47
2023-04-07T09:06:27.362Z,37.09
2023-04-07T09:08:55.401Z,36.71
2023-04-07T09:11:23.706Z,38.64
2023-04-07T09:13:51.310Z,37.73
2023-04-07T09:16:18.949Z,37.93
2023-04-07T09:18:46.216Z,37.14
2023-04-07T09:21:15.214Z,36.67
2023-04-07T09:23:43.152Z,37.54
2023-04-07T09:26:26.123Z,36.88
2023-04-07T09:28:59.743Z,36.33
2023-04-07T09:31:50.752Z,35.92
2023-04-07T09:34:41.033Z,36.97
2023-04-07T09:37:09.699Z,36.34
2023-04-07T09:39:57.067Z,36.56
2023-04-07T09:42:24.045Z,36.46
2023-04-07T09:44:51.187Z,37.00
2023-04-07T09:47:18.262Z,37.28
2023-04-07T09:49:53.709Z,37.93
2023-04-07T09:52:26.457Z,37.45
2023-04-07T09:54:55.873Z,37.77
2023-04-07T09:57:23.849Z,37.43
2023-04-07T09:59:54.356Z,37.74
2023-04-07T10:02:23.224Z,36.82
2023-04-07T10:04:50.555Z,37.43
2023-04-07T10:07:17.736Z,36.62
2023-04-07T10:09:44.679Z,36.25
2023-04-07T10:12:12.464Z,36.09
2023-04-07T10:14:40.425Z,36.56
2023-04-07T10:17:08.534Z,36.86
2023-04-07T10:19:36.409Z,35.95
2023-04-07T10:22:05.925Z,37.26
2023-04-07T10:24:59.057Z,37.34
2023-04-07T10:27:37.415Z,36.84
2023-04-07T10:30:07.292Z,37.42
2023-04-07T10:32:49.614Z,36.88
2023-04-07T10:35:17.397Z,37.56
2023-04-07T10:38:16.936Z,37.95
2023-04-07T10:40:44.594Z,37.63
2023-04-07T10:43:12.297Z,38.40
2023-04-07T10:45:56.196Z,38.27
2023-04-07T10:48:23.615Z,38.47
2023-04-07T10:51:06.195Z,39.63
2023-04-07T10:53:37.153Z,38.31
2023-04-07T10:56:04.548Z,38.98
2023-04-07T10:58:34.730Z,39.38
2023-04-07T11:01:08.007Z,39.28
2023-04-07T11:03:36.397Z,38.98
2023-04-07T11:06:11.359Z,38.91
2023-04-07T11:08:48.962Z,39.63
2023-04-07T11:11:42.518Z,39.36
2023-04-07T11:14:09.839Z,39.89
2023-04-07T11:16:42.446Z,39.08
2023-04-07T11:19:10.061Z,40.36
2023-04-07T11:21:37.114Z,39.61
2023-04-07T11:24:04.406Z,39.10
2023-04-07T11:26:38.268Z,39.69
2023-04-07T11:29:05.380Z,39.30
2023-04-07T11:31:32.689Z,39.60
2023-04-07T11:34:05.446Z,39.46
2023-04-07T11:36:34.627Z,39.61
2023-04-07T11:39:03.060Z,39.95
2023-04-07T11:41:33.029Z,39.80
2023-04-07T11:44:05.176Z,40.31
2023-04-07T11:46:32.394Z,41.62
2023-04-07T11:49:13.480Z,40.97
2023-04-07T11:51:43.126Z,41.95
2023-04-07T11:54:11.160Z,41.62
2023-04-07T11:56:46.810Z,41.23
2023-04-07T11:59:25.052Z,41.14
2023-04-07T12:01:56.159Z,42.21
2023-04-07T12:04:24.898Z,40.92
2023-04-07T12:06:52.056Z,41.33
2023-04-07T12:09:35.977Z,41.46
2023-04-07T12:12:06.365Z,42.30
2023-04-07T12:14:34.468Z,41.89
2023-04-07T12:17:03.631Z,41.27
2023-04-07T12:19:36.233Z,41.63
2023-04-07T12:22:03.779Z,41.80
2023-04-07T12:24:32.438Z,41.49
2023-04-07T12:26:59.906Z,41.50
2023-04-07T12:29:27.092Z,41.42
2023-04-07T12:31:54.233Z,40.94
2023-04-07T12:34:21.660Z,41.47
2023-04-07T12:36:48.871Z,41.71
2023-04-07T12:39:16.718Z,41.80
2023-04-07T12:41:45.871Z,41.16
2023-04-07T12:44:12.940Z,41.93
2023-04-07T12:46:40.016Z,42.00
2023-04-07T12:49:07.314Z,41.77
2023-04-07T12:51:34.688Z,41.17
2023-04-07T12:54:01.822Z,41.82
2023-04-07T12:56:28.857Z,41.54
2023-04-07T12:58:55.963Z,41.55
2023-04-07T13:01:22.987Z,41.96
2023-04-07T13:03:50.114Z,42.03
2023-04-07T13:06:18.073Z,42.13
2023-04-07T13:08:45.097Z,42.44
2023-04-07T13:11:12.215Z,41.54
2023-04-07T13:13:39.193Z,41.95
2023-04-07T13:16:06.324Z,42.42
2023-04-07T13:18:33.304Z,42.70
2023-04-07T13:21:33.583Z,42.25
2023-04-07T13:23:48.607Z,41.55
2023-04-07T13:26:15.561Z,41.78
2023-04-07T13:28:46.055Z,42.53
2023-04-07T13:31:16.287Z,42.82
2023-04-07T13:33:43.907Z,43.00
2023-04-07T13:36:11.030Z,43.16
2023-04-07T13:38:38.395Z,43.81
2023-04-07T13:41:05.572Z,43.98
2023-04-07T13:43:32.493Z,44.00
2023-04-07T13:45:59.479Z,44.23
2023-04-07T13:48:26.621Z,44.26
2023-04-07T13:50:53.735Z,44.35
2023-04-07T13:53:21.762Z,44.35
2023-04-07T13:55:48.940Z,44.60
2023-04-07T13:58:16.930Z,44.95
2023-04-07T14:00:43.903Z,44.16
2023-04-07T14:03:11.680Z,44.62
2023-04-07T14:06:01.420Z,44.94
2023-04-07T14:08:28.472Z,45.57
2023-04-07T14:10:55.736Z,46.95
2023-04-07T14:13:27.277Z,46.91
2023-04-07T14:15:54.453Z,47.12
2023-04-07T14:18:21.698Z,46.79
2023-04-07T14:20:48.815Z,48.47
2023-04-07T14:23:20.771Z,48.71
2023-04-07T14:25:54.727Z,48.03
2023-04-07T14:28:21.677Z,49.31
2023-04-07T14:30:48.650Z,48.84
2023-04-07T14:33:17.778Z,48.75
2023-04-07T14:35:45.096Z,48.32
2023-04-07T14:38:12.036Z,48.58
2023-04-07T14:40:41.334Z,49.50
2023-04-07T14:43:08.232Z,48.91
2023-04-07T14:45:35.788Z,49.74
2023-04-07T14:48:03.014Z,49.54
2023-04-07T14:50:33.549Z,50.14
2023-04-07T14:53:01.087Z,50.12
2023-04-07T14:55:28.276Z,51.03
2023-04-07T14:57:55.288Z,52.01
2023-04-07T15:00:22.799Z,52.09
2023-04-07T15:02:50.063Z,52.28
2023-04-07T15:05:17.392Z,52.94
2023-04-07T15:07:45.926Z,52.47
2023-04-07T15:10:13.138Z,53.31
2023-04-07T15:12:40.684Z,53.53
2023-04-07T15:15:07.848Z,53.25
2023-04-07T15:17:43.282Z,52.74
2023-04-07T15:20:12.876Z,53.44
2023-04-07T15:22:40.512Z,53.58
2023-04-07T15:25:08.012Z,53.93
2023-04-07T15:27:35.212Z,53.68
2023-04-07T15:30:02.292Z,54.20
2023-04-07T15:32:32.050Z,54.64
2023-04-07T15:34:59.240Z,55.00
2023-04-07T15:37:26.801Z,54.73
2023-04-07T15:39:53.867Z,54.96
2023-04-07T15:42:20.955Z,55.10
2023-04-07T15:44:48.302Z,55.08
2023-04-07T15:47:16.031Z,55.05
2023-04-07T15:49:44.330Z,55.32
2023-04-07T15:52:13.675Z,55.34
2023-04-07T15:54:40.814Z,55.55
2023-04-07T15:57:07.834Z,55.82
2023-04-07T15:59:36.084Z,55.43
2023-04-07T16:02:03.186Z,55.63
2023-04-07T16:04:30.325Z,55.46
2023-04-07T16:06:57.264Z,55.50
2023-04-07T16:09:24.277Z,55.36
2023-04-07T16:11:51.275Z,55.84
2023-04-07T16:14:18.212Z,56.05
2023-04-07T16:16:45.338Z,56.21
2023-04-07T16:19:14.678Z,56.19
2023-04-07T16:21:41.496Z,56.13
2023-04-07T16:24:08.551Z,56.47
2023-04-07T16:26:35.544Z,56.27
2023-04-07T16:29:02.733Z,56.37
2023-04-07T16:31:29.687Z,56.35
2023-04-07T16:33:57.067Z,56.51
2023-04-07T16:36:25.175Z,56.61
2023-04-07T16:38:52.366Z,56.35
2023-04-07T16:41:20.472Z,56.55
2023-04-07T16:43:47.727Z,56.29
2023-04-07T16:46:15.093Z,56.33
2023-04-07T16:48:42.166Z,56.24
2023-04-07T16:51:09.074Z,56.41
2023-04-07T16:53:37.276Z,56.15
2023-04-07T16:56:04.405Z,56.40
2023-04-07T16:58:31.494Z,56.42
2023-04-07T17:00:58.645Z,56.77
2023-04-07T17:03:25.966Z,56.70
2023-04-07T17:05:53.467Z,56.76
2023-04-07T17:08:21.175Z,57.18
2023-04-07T17:10:48.197Z,56.62
2023-04-07T17:13:15.300Z,56.98
2023-04-07T17:15:44.810Z,57.02
2023-04-07T17:18:14.077Z,57.07
2023-04-07T17:20:41.542Z,56.51
2023-04-07T17:23:10.437Z,57.20
2023-04-07T17:25:37.917Z,56.96
2023-04-07T17:28:04.795Z,57.18
2023-04-07T17:30:32.358Z,57.26
2023-04-07T17:32:59.482Z,57.12
2023-04-07T17:35:26.517Z,57.18
2023-04-07T17:37:53.686Z,57.15
2023-04-07T17:40:21.610Z,57.30
2023-04-07T17:42:49.799Z,57.07
2023-04-07T17:45:18.524Z,57.56
2023-04-07T17:47:46.425Z,57.29
2023-04-07T17:50:14.913Z,57.24
2023-04-07T17:52:42.346Z,57.44
2023-04-07T17:55:09.992Z,57.82
2023-04-07T17:57:37.322Z,58.06
2023-04-07T18:00:05.940Z,57.81
2023-04-07T18:02:40.533Z,58.19
2023-04-07T18:05:08.310Z,58.04
2023-04-07T18:07:35.698Z,57.65
2023-04-07T18:10:03.482Z,57.56
2023-04-07T18:12:31.959Z,57.24
2023-04-07T18:14:59.447Z,57.14
2023-04-07T18:17:26.582Z,57.57
2023-04-07T18:19:53.729Z,57.82
2023-04-07T18:22:22.712Z,58.20
2023-04-07T18:24:51.950Z,57.92
2023-04-07T18:27:19.385Z,58.57
2023-04-07T18:29:46.636Z,58.92
2023-04-07T18:32:13.663Z,58.50
2023-04-07T18:34:40.599Z,57.98
2023-04-07T18:37:07.621Z,58.41
2023-04-07T18:39:34.723Z,58.32
2023-04-07T18:42:01.689Z,58.42
2023-04-07T18:44:28.662Z,58.09
2023-04-07T18:46:55.946Z,57.39
2023-04-07T18:49:23.535Z,57.84
2023-04-07T18:51:50.426Z,58.20
2023-04-07T18:54:17.839Z,58.56
2023-04-07T18:56:45.613Z,58.95
2023-04-07T18:59:12.630Z,59.22
2023-04-07T19:01:41.831Z,59.52
2023-04-07T19:04:09.232Z,59.62
2023-04-07T19:06:37.363Z,59.52
2023-04-07T19:09:04.811Z,59.58
2023-04-07T19:11:32.003Z,59.99
2023-04-07T19:13:59.183Z,60.20
2023-04-07T19:16:26.402Z,60.34
2023-04-07T19:18:54.198Z,60.36
2023-04-07T19:21:21.447Z,60.73
2023-04-07T19:23:48.742Z,60.85
2023-04-07T19:26:16.602Z,61.19
2023-04-07T19:28:44.274Z,61.56
2023-04-07T19:31:11.950Z,61.74
2023-04-07T19:33:38.808Z,62.02
2023-04-07T19:36:06.407Z,62.38
2023-04-07T19:38:33.359Z,62.29
2023-04-07T19:41:00.456Z,62.36
2023-04-07T19:43:27.279Z,62.42
2023-04-07T19:45:54.344Z,62.22
2023-04-07T19:48:21.564Z,62.51
2023-04-07T19:50:51.750Z,62.79
2023-04-07T19:53:20.016Z,62.79
2023-04-07T19:55:47.038Z,62.92
2023-04-07T19:58:14.197Z,63.15
2023-04-07T20:00:41.469Z,63.03
2023-04-07T20:03:08.643Z,62.92
2023-04-07T20:05:37.223Z,63.18
2023-04-07T20:08:04.309Z,62.69
2023-04-07T20:10:31.326Z,62.69
2023-04-07T20:12:58.402Z,62.79
2023-04-07T20:15:25.437Z,62.71
2023-04-07T20:17:52.387Z,62.69
2023-04-07T20:20:19.658Z,62.94
2023-04-07T20:22:46.634Z,63.22
2023-04-07T20:25:13.927Z,63.24
2023-04-07T20:27:40.836Z,63.40
2023-04-07T20:30:09.365Z,63.50
2023-04-07T20:32:36.535Z,63.56
2023-04-07T20:35:03.987Z,63.38
2023-04-07T20:37:30.936Z,63.38
2023-04-07T20:39:58.063Z,63.43
2023-04-07T20:42:25.110Z,63.58
2023-04-07T20:44:53.700Z,63.70
2023-04-07T20:47:20.623Z,63.55
2023-04-07T20:49:47.712Z,63.85
2023-04-07T20:52:14.897Z,63.74
2023-04-07T20:54:44.875Z,63.72
2023-04-07T20:57:12.096Z,63.46
2023-04-07T20:59:38.914Z,63.73
2023-04-07T21:02:06.739Z,63.83
2023-04-07T21:04:34.300Z,63.67
2023-04-07T21:07:01.381Z,63.47
2023-04-07T21:09:28.485Z,63.45
2023-04-07T21:11:55.640Z,63.87
2023-04-07T21:14:22.587Z,64.07
2023-04-07T21:16:50.012Z,64.31
2023-04-07T21:19:17.837Z,64.35
2023-04-07T21:21:44.745Z,64.20
2023-04-07T21:24:12.287Z,64.38
2023-04-07T21:26:39.382Z,64.38
2023-04-07T21:29:06.638Z,64.25
2023-04-07T21:31:33.856Z,64.37
2023-04-07T21:34:00.782Z,64.40
2023-04-07T21:36:32.163Z,64.46
2023-04-07T21:38:59.182Z,64.49
2023-04-07T21:41:25.999Z,64.69
2023-04-07T21:43:52.866Z,64.93
2023-04-07T21:46:19.974Z,64.37
2023-04-07T21:48:48.461Z,64.24
2023-04-07T21:51:15.802Z,64.53
2023-04-07T21:53:42.734Z,64.38
2023-04-07T21:56:09.696Z,63.80
2023-04-07T21:58:37.469Z,64.02
2023-04-07T22:01:04.488Z,63.94
2023-04-07T22:03:32.028Z,64.88
2023-04-07T22:06:00.190Z,64.97
2023-04-07T22:08:27.331Z,65.31
2023-04-07T22:10:54.312Z,65.89
2023-04-07T22:13:21.175Z,66.79
2023-04-07T22:15:48.216Z,66.95
2023-04-07T22:18:15.674Z,66.83
2023-04-07T22:20:42.612Z,66.86
2023-04-07T22:23:09.509Z,66.82
2023-04-07T22:25:36.687Z,67.07
2023-04-07T22:28:03.895Z,66.96
2023-04-07T22:30:30.791Z,67.13
2023-04-07T22:32:57.869Z,67.35
2023-04-07T22:35:24.882Z,67.66
2023-04-07T22:37:51.915Z,67.56
2023-04-07T22:40:19.071Z,67.66
2023-04-07T22:42:46.202Z,67.85
2023-04-07T22:45:13.375Z,67.53
2023-04-07T22:47:40.756Z,67.86
2023-04-07T22:50:08.284Z,67.53
2023-04-07T22:52:35.343Z,67.58
2023-04-07T22:55:02.394Z,67.67
2023-04-07T22:57:30.425Z,67.52
2023-04-07T22:59:57.440Z,67.29
2023-04-07T23:02:24.444Z,67.58
2023-04-07T23:04:52.066Z,67.48
2023-04-07T23:07:19.035Z,67.51
2023-04-07T23:09:46.350Z,67.50
2023-04-07T23:12:13.299Z,67.68
2023-04-07T23:14:40.441Z,67.70
2023-04-07T23:17:07.708Z,67.57
2023-04-07T23:19:34.786Z,67.41
2023-04-07T23:22:01.934Z,67.38
2023-04-07T23:24:28.919Z,67.71
2023-04-07T23:26:56.981Z,67.62
2023-04-07T23:29:24.065Z,67.56
2023-04-07T23:31:51.185Z,67.83
2023-04-07T23:34:18.157Z,67.87
2023-04-07T23:36:45.148Z,67.79
2023-04-07T23:39:12.246Z,67.71
2023-04-07T23:41:39.747Z,67.64
2023-04-07T23:44:07.251Z,67.65
2023-04-07T23:46:34.213Z,67.55
2023-04-07T23:49:02.393Z,67.77
2023-04-07T23:51:30.457Z,67.64
2023-04-07T23:53:57.520Z,68.02
2023-04-07T23:56:24.754Z,67.77
2023-04-07T23:58:51.999Z,67.86
